Current Conditions
Clear
Conditions



Pressure
1025.92 (mb) - 30.3 (inHG)
Visibility

6.2 (miles) - 10.0 (km)
   Temperature
10  °C
50°F
8  °C
Dewpoint
88  %
 Humidity
   Wind Speed
3  kts
3  mph
5  km/h
1.3  m/s
   Wind Direction
Calm
Due North
   Airport Data
EGHI
Location Southampton Airport 35 mi (56.32 km)
Metar :EGHI 222120Z VRB03KT CAVOK 10/08 Q1026
Fri 22nd October 22:20 pm
   Raw Metar Info
Raw METAR is the most common format in the world for the transmission of observational weather data. It is highly standardized through the International Civil Aviation Organization (ICAO), which allows it to be understood throughout most of the world.
   API Info
Data Provided by
https://www.checkwx.com/weather/EGHI
   © Info
CSS/SVG/PHP scripts were developed by weather34.com for use in the weather34 template © 2015-2021

Guide Info provided by Metar-Wikipedia